Time;durP1;ratioP1;P1;durP2;ratioP2;P2;SDS_P1;SDS_P2;PMS_P1;PMS_P2;Temp;Humidity;BMP_temperature;BMP_pressure;BME280_temperature;BME280_humidity;BME280_pressure;Samples;Min_cycle;Max_cycle;Signal;HPM_P1;HPM_P2
2023/05/21 00:00:46;;;;;;;19.45;11.93;;;;;;;13.38;90.50;101455.25;4977908;28;20113;-70
2023/05/21 00:03:15;;;;;;;18.50;10.77;;;;;;;13.37;90.58;101450.19;4955982;28;20101;-71
2023/05/21 00:05:41;;;;;;;16.33;10.02;;;;;;;13.37;90.74;101448.41;4982813;28;20034;-71
2023/05/21 00:08:06;;;;;;;21.25;10.45;;;;;;;13.35;90.91;101449.53;4982316;28;20132;-71
2023/05/21 00:10:32;;;;;;;18.58;10.27;;;;;;;13.32;91.00;101449.88;4973025;28;20027;-70
2023/05/21 00:12:57;;;;;;;20.35;11.00;;;;;;;13.31;91.19;101446.44;4978766;28;20446;-71
2023/05/21 00:15:23;;;;;;;16.92;10.23;;;;;;;13.34;91.10;101445.31;4959335;28;20030;-70
2023/05/21 00:17:48;;;;;;;19.10;10.98;;;;;;;13.29;90.95;101437.94;4991827;28;20428;-71
2023/05/21 00:20:15;;;;;;;19.15;10.07;;;;;;;13.30;91.22;101438.75;4978726;28;20034;-70
2023/05/21 00:22:41;;;;;;;18.52;9.73;;;;;;;13.29;91.30;101440.53;4989664;28;20500;-70
2023/05/21 00:25:07;;;;;;;17.65;9.35;;;;;;;13.27;91.60;101439.06;4993502;28;20034;-70
2023/05/21 00:27:32;;;;;;;18.02;10.45;;;;;;;13.25;91.69;101434.03;4955836;28;20039;-70
2023/05/21 00:29:58;;;;;;;18.73;9.50;;;;;;;13.23;91.71;101439.38;4975503;28;20035;-70
2023/05/21 00:32:23;;;;;;;17.70;9.40;;;;;;;13.22;91.91;101429.13;4994564;28;20171;-70
2023/05/21 00:34:49;;;;;;;20.33;10.68;;;;;;;13.23;91.58;101426.34;4991962;28;20505;-70
2023/05/21 00:37:15;;;;;;;15.82;9.50;;;;;;;13.24;91.63;101432.38;4973703;28;20034;-70
2023/05/21 00:39:40;;;;;;;15.85;9.88;;;;;;;13.23;91.78;101421.16;4992262;28;20107;-70
2023/05/21 00:42:06;;;;;;;17.20;9.20;;;;;;;13.24;91.76;101427.16;4992385;28;20113;-70
2023/05/21 00:44:33;;;;;;;20.17;10.18;;;;;;;13.22;91.95;101423.91;4979885;28;20046;-70
2023/05/21 00:47:03;;;;;;;17.65;10.27;;;;;;;13.20;92.30;101426.69;4974514;28;20039;-70
2023/05/21 00:49:29;;;;;;;18.50;10.20;;;;;;;13.17;92.54;101426.19;4961836;28;20122;-70
2023/05/21 00:51:55;;;;;;;18.75;10.57;;;;;;;13.16;92.67;101427.97;4976128;28;20520;-70
2023/05/21 00:54:22;;;;;;;18.38;11.00;;;;;;;13.12;93.05;101425.84;4975950;28;20043;-70
2023/05/21 00:56:49;;;;;;;17.60;10.00;;;;;;;13.11;93.13;101421.59;4991575;28;20026;-70
2023/05/21 00:59:15;;;;;;;17.13;9.50;;;;;;;13.09;92.93;101420.94;4962649;28;20654;-70
2023/05/21 01:01:44;;;;;;;15.10;9.63;;;;;;;13.06;92.96;101424.69;4989808;28;20093;-70
2023/05/21 01:04:10;;;;;;;19.33;9.85;;;;;;;13.01;93.24;101430.34;4988143;28;20461;-70
2023/05/21 01:06:36;;;;;;;16.30;9.65;;;;;;;12.97;93.65;101433.41;4981174;28;20532;-70
2023/05/21 01:09:03;;;;;;;16.08;9.68;;;;;;;12.93;93.94;101427.72;4973281;28;20047;-70
2023/05/21 01:11:49;;;;;;;18.98;9.85;;;;;;;12.90;94.11;101427.19;4955313;28;20125;-70
2023/05/21 01:14:16;;;;;;;20.10;10.88;;;;;;;12.89;94.24;101425.59;4961387;28;20453;-70
2023/05/21 01:16:45;;;;;;;18.40;10.35;;;;;;;12.85;94.19;101420.69;4975772;28;20034;-70
2023/05/21 01:19:15;;;;;;;16.55;9.95;;;;;;;12.83;94.36;101416.63;4950589;28;20038;-70
2023/05/21 01:21:44;;;;;;;17.30;10.20;;;;;;;12.81;94.47;101415.97;4978112;28;20049;-70
2023/05/21 01:24:10;;;;;;;16.48;10.20;;;;;;;12.79;94.61;101410.06;4966884;28;21843;-70
2023/05/21 01:26:37;;;;;;;18.25;10.23;;;;;;;12.77;94.64;101418.06;4973112;28;20042;-70
2023/05/21 01:29:11;;;;;;;19.40;10.35;;;;;;;12.76;95.01;101413.81;4952230;28;20056;-70
2023/05/21 01:31:43;;;;;;;20.95;10.90;;;;;;;12.75;94.83;101411.34;4993571;28;20034;-70
2023/05/21 01:34:11;;;;;;;18.27;10.32;;;;;;;12.72;94.67;101403.88;4993725;28;20042;-70
2023/05/21 01:36:48;;;;;;;17.20;10.23;;;;;;;12.70;94.80;101403.22;4989612;28;20388;-70
2023/05/21 01:39:22;;;;;;;17.05;10.35;;;;;;;12.66;94.97;101403.50;4959891;28;20068;-70
2023/05/21 01:41:51;;;;;;;20.55;11.45;;;;;;;12.65;95.02;101401.88;4991549;28;20026;-71
2023/05/21 01:44:18;;;;;;;17.45;9.65;;;;;;;12.60;95.59;101398.94;4995809;28;20080;-70
2023/05/21 01:46:43;;;;;;;18.27;9.82;;;;;;;12.60;95.85;101398.94;4995312;28;20283;-70
2023/05/21 01:49:10;;;;;;;18.63;10.48;;;;;;;12.58;95.88;101402.66;4979353;28;20523;-70
2023/05/21 01:51:36;;;;;;;16.15;10.40;;;;;;;12.57;96.03;101401.03;4966502;28;20130;-70
2023/05/21 01:54:02;;;;;;;18.60;11.05;;;;;;;12.57;96.13;101401.03;4979924;28;20545;-70
2023/05/21 01:56:27;;;;;;;19.05;10.50;;;;;;;12.55;96.14;101403.78;4997087;28;20030;-70
2023/05/21 01:58:57;;;;;;;17.15;10.20;;;;;;;12.54;96.03;101411.72;4964061;28;20515;-70
2023/05/21 02:01:22;;;;;;;20.40;10.68;;;;;;;12.50;96.14;101406.03;4999023;28;20030;-70
2023/05/21 02:03:48;;;;;;;19.30;10.32;;;;;;;12.48;96.51;101404.56;4995756;28;20433;-70
2023/05/21 02:06:13;;;;;;;18.27;10.52;;;;;;;12.43;96.82;101405.00;4997555;28;20495;-70
2023/05/21 02:08:39;;;;;;;16.42;9.55;;;;;;;12.36;97.32;101394.41;4984011;28;20043;-70
2023/05/21 02:11:04;;;;;;;17.25;10.23;;;;;;;12.35;97.67;101397.97;4996208;28;20035;-70
2023/05/21 02:13:31;;;;;;;17.90;10.40;;;;;;;12.34;98.12;101392.91;4978936;28;20042;-70
2023/05/21 02:15:56;;;;;;;17.58;10.00;;;;;;;12.34;98.19;101396.34;4967790;28;20057;-70
2023/05/21 02:18:22;;;;;;;16.23;9.50;;;;;;;12.37;97.96;101396.03;5001533;28;20031;-70
2023/05/21 02:20:48;;;;;;;16.38;9.52;;;;;;;12.38;97.76;101394.25;4998939;28;20105;-70
2023/05/21 02:23:13;;;;;;;16.45;10.13;;;;;;;12.36;97.59;101388.41;4978640;28;20355;-70
2023/05/21 02:25:39;;;;;;;14.98;9.20;;;;;;;12.34;97.67;101391.16;4983882;28;20030;-70
2023/05/21 02:28:05;;;;;;;16.40;9.82;;;;;;;12.32;97.96;101387.88;4997511;28;20026;-70
2023/05/21 02:30:31;;;;;;;14.75;9.07;;;;;;;12.33;98.26;101391.28;4997051;28;20080;-70
2023/05/21 02:32:57;;;;;;;17.30;10.05;;;;;;;12.32;98.15;101382.69;4985788;28;20038;-70
2023/05/21 02:35:23;;;;;;;15.75;8.70;;;;;;;12.34;98.26;101385.94;4984428;28;20034;-70
2023/05/21 02:37:48;;;;;;;16.17;9.27;;;;;;;12.34;98.35;101387.72;4994278;28;20035;-70
2023/05/21 02:40:14;;;;;;;14.45;9.13;;;;;;;12.34;98.17;101388.53;4964748;28;20493;-70
2023/05/21 02:42:40;;;;;;;14.32;8.95;;;;;;;12.35;98.01;101384.16;4984669;28;20053;-70
2023/05/21 02:45:08;;;;;;;17.25;10.05;;;;;;;12.38;98.11;101379.47;4995112;28;20585;-71
2023/05/21 02:47:35;;;;;;;15.13;9.90;;;;;;;12.33;98.08;101368.69;4956543;28;20274;-70
2023/05/21 02:50:00;;;;;;;16.10;9.48;;;;;;;12.31;98.70;101364.63;4982161;28;20046;-70
2023/05/21 02:52:27;;;;;;;15.88;9.25;;;;;;;12.31;98.94;101370.63;4980149;28;20531;-70
2023/05/21 02:54:52;;;;;;;14.85;9.68;;;;;;;12.28;99.01;101370.94;4956321;28;20039;-70
2023/05/21 02:57:18;;;;;;;15.77;9.43;;;;;;;12.27;99.54;101370.13;4992722;28;20034;-70
2023/05/21 02:59:44;;;;;;;17.92;9.85;;;;;;;12.26;100.00;101370.28;4964208;28;20042;-70
2023/05/21 03:02:10;;;;;;;15.02;8.82;;;;;;;12.23;99.83;101366.19;4960916;28;20259;-70
2023/05/21 03:04:37;;;;;;;14.30;8.95;;;;;;;12.20;99.95;101365.69;4961645;28;20456;-70
2023/05/21 03:07:04;;;;;;;16.42;9.07;;;;;;;12.18;100.00;101365.03;4981150;28;20058;-70
2023/05/21 03:09:30;;;;;;;14.15;9.00;;;;;;;12.17;100.00;101366.00;4968490;28;20037;-70
2023/05/21 03:11:56;;;;;;;15.50;9.43;;;;;;;12.21;100.00;101370.75;4997841;28;20057;-70
2023/05/21 03:14:23;;;;;;;14.57;8.45;;;;;;;12.20;100.00;101368.28;4982146;28;20408;-70
2023/05/21 03:16:50;;;;;;;17.50;9.13;;;;;;;12.24;100.00;101367.00;4998085;28;20030;-70
2023/05/21 03:19:16;;;;;;;13.68;8.57;;;;;;;12.18;100.00;101358.03;4981325;28;20589;-70
2023/05/21 03:21:43;;;;;;;12.73;7.80;;;;;;;12.19;100.00;101358.88;4981663;28;20042;-70
2023/05/21 03:24:09;;;;;;;13.93;8.98;;;;;;;12.14;100.00;101350.72;4981869;28;20061;-70
2023/05/21 03:26:34;;;;;;;13.57;7.78;;;;;;;12.10;100.00;101345.00;4967278;28;20042;-70
2023/05/21 03:29:00;;;;;;;14.98;8.82;;;;;;;12.12;100.00;101350.84;4993263;28;20516;-70
2023/05/21 03:31:26;;;;;;;14.65;8.65;;;;;;;12.10;100.00;101350.19;4993290;28;20068;-70
2023/05/21 03:34:12;;;;;;;11.75;7.78;;;;;;;12.09;100.00;101353.75;4997100;28;20046;-70
2023/05/21 03:36:37;;;;;;;13.38;7.75;;;;;;;12.10;100.00;101349.41;4982750;28;20035;-70
2023/05/21 03:39:03;;;;;;;12.85;8.40;;;;;;;12.08;100.00;101346.94;4976788;28;20051;-70
2023/05/21 03:41:31;;;;;;;15.68;8.02;;;;;;;12.05;100.00;101342.88;4996544;28;20504;-70
2023/05/21 03:44:04;;;;;;;14.45;7.97;;;;;;;12.03;100.00;101354.38;4996654;28;20057;-70
2023/05/21 03:46:38;;;;;;;12.45;8.32;;;;;;;12.04;100.00;101356.00;4992876;28;20123;-70
2023/05/21 03:49:07;;;;;;;11.30;7.22;;;;;;;12.04;100.00;101350.81;4995834;28;20507;-70
2023/05/21 03:51:37;;;;;;;12.63;7.53;;;;;;;12.05;100.00;101355.88;4996718;28;20495;-70
2023/05/21 03:54:03;;;;;;;14.70;8.35;;;;;;;12.04;100.00;101351.63;4991674;28;20485;-70
2023/05/21 03:56:28;;;;;;;15.70;8.10;;;;;;;12.05;100.00;101361.06;4977316;28;20018;-70
2023/05/21 03:58:54;;;;;;;16.17;8.93;;;;;;;12.05;100.00;101362.81;4958549;28;20489;-70
2023/05/21 04:01:20;;;;;;;14.85;7.95;;;;;;;12.04;100.00;101361.22;4964216;28;20668;-70
2023/05/21 04:03:47;;;;;;;14.23;8.07;;;;;;;12.04;100.00;101363.81;4994159;28;20047;-70
2023/05/21 04:06:15;;;;;;;11.65;7.53;;;;;;;12.01;100.00;101362.31;4994684;28;20112;-70
2023/05/21 04:08:41;;;;;;;14.13;8.43;;;;;;;12.02;100.00;101365.75;4979119;28;20061;-70
2023/05/21 04:11:07;;;;;;;13.38;8.65;;;;;;;12.04;100.00;101369.00;4994620;28;20381;-70
2023/05/21 04:13:34;;;;;;;12.85;8.63;;;;;;;12.07;100.00;101372.13;4994158;28;20373;-70
2023/05/21 04:15:59;;;;;;;14.85;8.00;;;;;;;12.07;100.00;101371.28;5003935;23;20454;-68
2023/05/21 04:18:25;;;;;;;13.75;8.10;;;;;;;12.05;100.00;101371.47;4996932;28;20049;-68
2023/05/21 04:20:51;;;;;;;14.85;8.82;;;;;;;12.03;100.00;101370.78;4973980;28;20489;-68
2023/05/21 04:23:17;;;;;;;13.68;8.43;;;;;;;12.16;100.00;101367.78;4993298;28;20091;-68
2023/05/21 04:25:43;;;;;;;14.43;8.32;;;;;;;12.13;100.00;101365.50;4995449;28;20471;-68
2023/05/21 04:28:09;;;;;;;13.82;7.57;;;;;;;12.11;100.00;101379.59;5001688;28;20045;-68
2023/05/21 04:30:35;;;;;;;15.45;9.43;;;;;;;12.10;100.00;101376.19;5004011;28;20026;-68
2023/05/21 04:33:02;;;;;;;12.40;7.70;;;;;;;12.10;100.00;101383.19;4984011;28;20037;-69
2023/05/21 04:35:28;;;;;;;11.77;8.10;;;;;;;12.12;100.00;101378.66;4999596;28;20034;-68
2023/05/21 04:37:53;;;;;;;17.40;8.32;;;;;;;12.14;100.00;101377.50;5000659;28;20040;-68
2023/05/21 04:40:23;;;;;;;14.70;7.85;;;;;;;12.16;100.00;101367.78;4981269;28;20022;-68
2023/05/21 04:42:49;;;;;;;15.35;8.23;;;;;;;12.19;100.00;101377.88;5001116;28;20510;-68
2023/05/21 04:45:18;;;;;;;17.05;8.82;;;;;;;12.19;100.00;101374.47;5003165;28;20080;-68
2023/05/21 04:47:46;;;;;;;11.88;7.53;;;;;;;12.19;100.00;101377.88;4995563;28;20034;-68
2023/05/21 04:50:12;;;;;;;11.35;7.95;;;;;;;12.24;100.00;101380.00;5004246;28;20112;-68
2023/05/21 04:52:39;;;;;;;12.98;8.07;;;;;;;12.24;100.00;101375.66;4989083;28;20112;-68
2023/05/21 04:55:08;;;;;;;11.93;8.25;;;;;;;12.29;100.00;101374.38;5003357;28;20048;-68
2023/05/21 04:57:34;;;;;;;12.02;8.05;;;;;;;12.32;100.00;101374.88;4994314;28;20038;-68
2023/05/21 05:00:00;;;;;;;13.90;8.43;;;;;;;12.34;100.00;101367.75;4989206;28;20046;-68
2023/05/21 05:02:28;;;;;;;16.98;8.25;;;;;;;12.36;100.00;101365.81;5003679;28;20058;-68
2023/05/21 05:04:54;;;;;;;17.05;8.77;;;;;;;12.40;100.00;101372.31;5002849;28;20180;-68
2023/05/21 05:07:20;;;;;;;13.68;8.43;;;;;;;12.40;100.00;101371.50;5009315;28;20032;-68
2023/05/21 05:09:45;;;;;;;14.70;8.48;;;;;;;12.34;100.00;101370.34;4987971;28;20030;-68
2023/05/21 05:12:11;;;;;;;16.75;8.48;;;;;;;12.39;100.00;101367.28;5005543;28;20034;-69
2023/05/21 05:14:36;;;;;;;14.10;8.50;;;;;;;12.39;100.00;101362.06;5003465;28;20411;-68
2023/05/21 05:17:02;;;;;;;12.95;8.50;;;;;;;12.40;100.00;101371.50;5001497;28;20030;-68
2023/05/21 05:19:27;;;;;;;17.40;8.77;;;;;;;12.47;100.00;101372.53;5001895;28;20108;-68
2023/05/21 05:21:53;;;;;;;14.50;8.60;;;;;;;12.50;100.00;101374.81;5003423;28;20037;-68
2023/05/21 05:24:19;;;;;;;13.65;8.05;;;;;;;12.55;100.00;101375.16;5005839;28;20046;-68
2023/05/21 05:26:45;;;;;;;15.63;8.20;;;;;;;12.57;100.00;101368.03;5009390;28;20395;-68
2023/05/21 05:29:12;;;;;;;13.90;8.55;;;;;;;12.57;100.00;101359.41;5001859;28;20595;-68
2023/05/21 05:31:37;;;;;;;12.25;7.93;;;;;;;12.59;100.00;101355.66;5029566;28;20033;-68
2023/05/21 05:34:03;;;;;;;16.55;8.50;;;;;;;12.68;100.00;101360.91;5018104;28;20096;-68
2023/05/21 05:36:28;;;;;;;15.55;8.25;;;;;;;12.74;100.00;101358.50;5002928;28;20041;-69
2023/05/21 05:38:54;;;;;;;14.25;8.35;;;;;;;12.69;100.00;101352.94;4998609;28;20050;-68
2023/05/21 05:41:21;;;;;;;15.00;8.70;;;;;;;12.77;100.00;101344.34;5010263;28;20454;-68
2023/05/21 05:43:48;;;;;;;13.88;8.02;;;;;;;12.84;99.94;101353.97;5016015;28;20042;-68
2023/05/21 05:46:14;;;;;;;14.75;8.60;;;;;;;12.90;100.00;101355.13;5000812;28;20044;-68
2023/05/21 05:48:40;;;;;;;15.55;8.90;;;;;;;12.92;99.88;101355.81;4986388;28;20038;-68
2023/05/21 05:51:05;;;;;;;14.50;8.05;;;;;;;12.96;99.55;101362.34;5021986;28;20022;-68
2023/05/21 05:53:31;;;;;;;14.82;8.93;;;;;;;12.99;99.15;101362.00;5008783;28;20049;-68
2023/05/21 05:55:56;;;;;;;15.18;8.18;;;;;;;13.02;99.20;101350.47;5023523;28;20496;-68
2023/05/21 05:58:22;;;;;;;14.13;8.13;;;;;;;13.05;99.01;101344.94;5007647;28;20048;-68
2023/05/21 06:01:07;;;;;;;16.23;8.43;;;;;;;13.10;99.56;101347.88;5030443;28;20277;-68
2023/05/21 06:03:32;;;;;;;13.52;8.77;;;;;;;13.09;99.10;101348.88;5022343;28;20041;-68
2023/05/21 06:06:04;;;;;;;14.40;8.90;;;;;;;13.16;98.72;101347.25;5009680;28;20041;-68
2023/05/21 06:08:33;;;;;;;11.48;8.10;;;;;;;13.24;98.27;101343.81;5031786;28;20041;-68
2023/05/21 06:10:59;;;;;;;17.67;9.07;;;;;;;13.33;98.05;101340.28;5040360;28;20040;-68
2023/05/21 06:13:24;;;;;;;11.52;7.57;;;;;;;13.40;98.26;101341.28;5003478;28;20075;-68
2023/05/21 06:15:51;;;;;;;15.02;8.18;;;;;;;13.50;97.99;101342.94;5003672;28;20373;-68
2023/05/21 06:18:17;;;;;;;16.95;9.07;;;;;;;13.61;96.68;101337.41;4990838;28;20038;-69
2023/05/21 06:20:43;;;;;;;13.40;8.65;;;;;;;13.66;96.01;101342.94;5007266;28;20041;-69
2023/05/21 06:23:09;;;;;;;13.43;7.97;;;;;;;13.65;96.02;101337.88;5007087;28;20062;-68
2023/05/21 06:25:35;;;;;;;13.13;8.75;;;;;;;13.78;95.47;101343.41;5005612;28;20091;-68
2023/05/21 06:28:00;;;;;;;14.55;9.55;;;;;;;13.92;94.52;101348.00;5007063;28;20030;-69
2023/05/21 06:30:28;;;;;;;14.23;8.68;;;;;;;13.94;94.42;101355.66;5007310;28;20018;-69
2023/05/21 06:32:53;;;;;;;13.40;8.18;;;;;;;14.06;94.68;101353.50;4990945;28;20036;-69
2023/05/21 06:35:19;;;;;;;13.43;8.25;;;;;;;14.11;94.09;101352.03;4988758;28;20504;-68
2023/05/21 06:37:45;;;;;;;15.77;9.13;;;;;;;14.22;93.37;101345.63;4992040;28;20029;-68
2023/05/21 06:40:11;;;;;;;14.82;8.85;;;;;;;14.35;92.70;101352.94;4994471;28;20042;-68
2023/05/21 06:42:38;;;;;;;13.30;8.35;;;;;;;14.49;92.17;101352.25;5013067;28;20061;-68
2023/05/21 06:45:35;;;;;;;16.48;8.70;;;;;;;14.57;90.89;101352.25;4994566;28;20046;-69
2023/05/21 06:48:11;;;;;;;14.25;8.75;;;;;;;14.74;90.28;101342.56;5008501;28;20044;-68
2023/05/21 06:50:36;;;;;;;11.10;7.40;;;;;;;14.87;89.83;101334.19;5010364;28;20088;-68
2023/05/21 06:53:03;;;;;;;13.90;8.63;;;;;;;14.90;89.40;101341.69;5011510;28;20100;-69
2023/05/21 06:55:29;;;;;;;13.75;8.32;;;;;;;14.87;88.73;101338.59;5005650;28;20037;-69
2023/05/21 06:58:13;;;;;;;17.65;8.73;;;;;;;15.03;88.15;101340.28;5005547;28;20054;-68
2023/05/21 07:00:39;;;;;;;17.67;8.85;;;;;;;15.14;88.09;101347.75;4995517;28;20037;-69
2023/05/21 07:03:04;;;;;;;15.43;9.68;;;;;;;15.23;87.32;101343.28;5010563;28;20038;-69
2023/05/21 07:05:30;;;;;;;16.38;8.27;;;;;;;15.47;86.93;101342.31;4990287;28;20103;-69
2023/05/21 07:07:56;;;;;;;14.55;8.55;;;;;;;15.70;85.70;101342.28;4995098;28;20368;-69
2023/05/21 07:10:21;;;;;;;17.63;10.27;;;;;;;15.87;85.04;101341.16;4992660;28;20040;-68
2023/05/21 07:12:46;;;;;;;16.70;9.75;;;;;;;16.06;83.50;101342.47;5008591;28;20034;-69
2023/05/21 07:15:12;;;;;;;20.45;9.30;;;;;;;16.60;81.23;101338.75;5006746;28;20046;-68
2023/05/21 07:17:38;;;;;;;15.40;8.85;;;;;;;17.16;78.35;101343.47;4997744;28;20041;-69
2023/05/21 07:20:08;;;;;;;15.32;8.85;;;;;;;17.59;76.45;101351.28;5006792;28;20042;-68
2023/05/21 07:22:38;;;;;;;15.97;8.93;;;;;;;17.93;74.83;101339.28;5004643;28;20030;-69
2023/05/21 07:25:05;;;;;;;16.13;9.00;;;;;;;17.91;74.56;101346.53;5014571;28;20543;-69
2023/05/21 07:27:30;;;;;;;20.13;8.63;;;;;;;17.93;73.63;101348.97;5024367;28;20053;-68
2023/05/21 07:29:56;;;;;;;11.35;8.25;;;;;;;17.86;73.57;101343.69;5005425;28;20204;-69
2023/05/21 07:32:21;;;;;;;13.50;8.75;;;;;;;17.83;73.92;101338.78;5007060;28;20088;-68
2023/05/21 07:34:47;;;;;;;15.80;8.45;;;;;;;17.87;73.51;101346.09;4994176;28;20038;-68
2023/05/21 07:37:13;;;;;;;12.00;7.40;;;;;;;18.06;73.60;101339.38;4987817;28;20033;-69
2023/05/21 07:39:39;;;;;;;11.93;7.53;;;;;;;18.03;73.59;101345.00;4988542;28;20042;-68
2023/05/21 07:42:05;;;;;;;12.43;8.23;;;;;;;18.02;73.86;101337.31;5007325;28;20092;-68
2023/05/21 07:44:30;;;;;;;12.98;8.05;;;;;;;18.00;73.22;101331.47;5003201;28;20045;-69
2023/05/21 07:46:57;;;;;;;14.88;8.15;;;;;;;18.09;73.66;101338.19;4988239;28;20062;-68
2023/05/21 07:49:23;;;;;;;14.00;8.23;;;;;;;18.04;72.32;101330.88;5004665;28;20045;-69
2023/05/21 07:51:49;;;;;;;13.27;8.00;;;;;;;18.08;72.45;101334.75;5004283;28;20029;-69
2023/05/21 07:54:14;;;;;;;15.98;8.40;;;;;;;18.00;72.31;101327.00;5008787;28;20412;-69
2023/05/21 07:56:41;;;;;;;19.98;8.93;;;;;;;17.92;73.27;101329.00;5003772;28;20212;-68
2023/05/21 07:59:08;;;;;;;11.85;7.72;;;;;;;18.01;74.48;101330.47;5020442;28;20056;-69
2023/05/21 08:01:36;;;;;;;14.68;8.77;;;;;;;17.95;73.75;101325.97;5031402;28;20116;-69
2023/05/21 08:04:05;;;;;;;13.65;8.95;;;;;;;17.82;74.50;101329.28;5026053;28;20049;-69
2023/05/21 08:06:32;;;;;;;12.75;7.95;;;;;;;17.95;73.82;101320.72;5024158;28;20439;-69
2023/05/21 08:09:00;;;;;;;17.60;8.13;;;;;;;18.05;73.98;101329.88;5018582;28;20523;-69
2023/05/21 08:11:27;;;;;;;15.00;8.43;;;;;;;18.12;73.43;101329.09;5006889;28;20034;-69
2023/05/21 08:13:53;;;;;;;16.77;8.95;;;;;;;18.23;73.43;101326.78;4997916;28;20049;-69
2023/05/21 08:16:22;;;;;;;14.45;8.82;;;;;;;18.31;72.95;101319.72;5040687;28;20029;-69
2023/05/21 08:18:48;;;;;;;14.30;8.43;;;;;;;18.28;72.16;101318.28;5025626;28;20546;-69
2023/05/21 08:21:14;;;;;;;14.27;8.73;;;;;;;18.45;72.36;101327.47;5031378;28;20436;-69
2023/05/21 08:23:39;;;;;;;12.45;8.38;;;;;;;18.85;72.02;101324.19;5023499;28;20050;-69
2023/05/21 08:26:05;;;;;;;15.65;8.52;;;;;;;18.55;71.57;101328.91;5026234;28;20044;-69
2023/05/21 08:28:31;;;;;;;15.13;8.65;;;;;;;18.77;70.72;101326.97;5027779;28;20037;-69
2023/05/21 08:30:58;;;;;;;15.43;9.48;;;;;;;19.00;69.67;101330.09;5016067;28;20061;-69
2023/05/21 08:33:24;;;;;;;18.42;8.88;;;;;;;18.91;69.85;101319.97;5024837;28;20046;-69
2023/05/21 08:35:49;;;;;;;15.48;9.98;;;;;;;18.85;70.57;101313.69;5024594;28;20033;-69
2023/05/21 08:38:22;;;;;;;17.27;9.35;;;;;;;18.61;72.00;101323.69;5012835;28;20052;-69
2023/05/21 08:40:58;;;;;;;13.68;8.38;;;;;;;18.64;72.26;101319.88;5022373;28;20072;-69
2023/05/21 08:43:27;;;;;;;17.48;9.45;;;;;;;18.49;72.67;101315.56;5018211;28;20132;-69
2023/05/21 08:45:54;;;;;;;16.50;8.63;;;;;;;18.69;72.28;101322.72;4994240;28;20036;-69
2023/05/21 08:48:22;;;;;;;15.98;9.55;;;;;;;18.73;72.36;101310.81;5008797;28;20042;-69
2023/05/21 08:50:51;;;;;;;16.85;9.25;;;;;;;18.70;71.76;101313.81;5001692;28;20029;-69
2023/05/21 08:53:22;;;;;;;17.05;9.20;;;;;;;18.57;72.56;101309.34;5014396;28;20049;-69
2023/05/21 08:55:54;;;;;;;19.17;9.02;;;;;;;18.62;72.81;101316.63;5011105;28;20029;-69
2023/05/21 08:58:21;;;;;;;19.05;9.43;;;;;;;18.59;72.67;101317.00;5006141;28;20050;-69
2023/05/21 09:00:47;;;;;;;14.32;9.48;;;;;;;18.55;73.19;101313.16;5009477;28;20377;-69
2023/05/21 09:03:16;;;;;;;15.25;9.70;;;;;;;18.71;72.88;101310.19;4998010;28;20041;-69
2023/05/21 09:05:44;;;;;;;15.77;9.70;;;;;;;18.74;73.54;101315.06;5016039;28;20049;-69
2023/05/21 09:08:43;;;;;;;17.38;9.07;;;;;;;18.77;73.19;101322.53;5002245;28;20042;-69
2023/05/21 09:11:20;;;;;;;15.45;9.60;;;;;;;18.89;72.53;101316.72;4967816;28;20407;-68
2023/05/21 09:13:53;;;;;;;17.73;9.45;;;;;;;18.89;73.03;101312.28;4998652;28;23234;-68
2023/05/21 09:16:25;;;;;;;18.50;9.60;;;;;;;19.06;73.05;101317.97;5004733;28;20068;-69
2023/05/21 09:18:51;;;;;;;15.30;9.32;;;;;;;19.11;72.40;101315.56;5008512;28;20072;-69
2023/05/21 09:21:28;;;;;;;15.15;9.80;;;;;;;19.34;73.06;101317.81;4999211;28;20030;-69
2023/05/21 09:24:02;;;;;;;17.73;9.52;;;;;;;19.72;70.46;101319.88;5014487;28;20469;-68
2023/05/21 09:26:28;;;;;;;17.95;9.75;;;;;;;20.06;69.02;101312.75;5028435;28;20033;-69
2023/05/21 09:28:59;;;;;;;21.92;10.48;;;;;;;20.16;68.35;101307.03;5014311;28;20042;-69
2023/05/21 09:31:25;;;;;;;13.93;9.18;;;;;;;20.17;68.31;101306.84;5001641;28;20075;-69
2023/05/21 09:33:52;;;;;;;18.15;9.55;;;;;;;20.32;67.69;101309.19;5007469;28;20181;-69
2023/05/21 09:36:20;;;;;;;12.60;8.70;;;;;;;20.48;68.08;101312.38;4995558;28;20030;-69
2023/05/21 09:38:53;;;;;;;15.85;10.30;;;;;;;20.46;66.44;101309.97;4999862;28;20048;-69
2023/05/21 09:41:20;;;;;;;15.10;9.55;;;;;;;20.28;67.50;101305.34;4984273;28;20026;-69
2023/05/21 09:43:46;;;;;;;13.70;9.98;;;;;;;20.36;68.28;101310.41;5012017;28;20041;-69
2023/05/21 09:46:14;;;;;;;15.48;9.45;;;;;;;20.44;67.62;101314.63;4985911;28;20033;-69
2023/05/21 09:48:41;;;;;;;17.23;11.18;;;;;;;20.24;66.58;101304.16;4997926;28;20052;-69
2023/05/21 09:51:12;;;;;;;15.63;9.98;;;;;;;20.17;69.30;101306.00;4985068;28;20125;-69
2023/05/21 09:53:54;;;;;;;15.85;10.10;;;;;;;20.33;67.64;101295.03;5004567;28;20045;-69
2023/05/21 09:56:25;;;;;;;17.48;10.43;;;;;;;20.51;68.06;101311.97;5006162;28;20068;-69
2023/05/21 09:58:55;;;;;;;18.58;10.35;;;;;;;20.58;66.59;101302.19;5002570;28;20284;-69
2023/05/21 10:01:22;;;;;;;17.23;10.38;;;;;;;20.70;66.20;101294.47;5009699;28;20048;-69
2023/05/21 10:03:55;;;;;;;17.55;9.70;;;;;;;20.84;66.01;101297.84;5023545;28;20053;-69
2023/05/21 10:06:25;;;;;;;19.65;11.43;;;;;;;21.07;66.05;101292.00;5031725;28;20848;-69
2023/05/21 10:08:53;;;;;;;15.15;10.75;;;;;;;21.17;63.96;101298.44;5019772;28;20049;-69
2023/05/21 10:11:23;;;;;;;15.18;10.15;;;;;;;20.91;66.83;101291.50;5008003;28;20539;-69
2023/05/21 10:13:54;;;;;;;17.80;9.77;;;;;;;21.00;65.69;101284.97;5009169;28;20038;-69
2023/05/21 10:18:48;;;;;;;16.15;10.82;;;;;;;21.22;65.35;101279.31;4960976;28;20407;-72
2023/05/21 10:21:15;;;;;;;26.48;11.50;;;;;;;21.47;65.90;101274.06;4965362;28;20080;-72
2023/05/21 10:23:42;;;;;;;18.00;9.52;;;;;;;21.74;62.53;101277.25;4953112;28;20129;-72
2023/05/21 10:26:08;;;;;;;21.85;12.40;;;;;;;21.71;62.77;101267.13;4983311;28;20630;-72
2023/05/21 10:28:35;;;;;;;17.55;10.80;;;;;;;21.83;62.75;101267.25;4980566;28;20133;-72
2023/05/21 10:31:01;;;;;;;21.27;11.68;;;;;;;22.06;61.73;101265.78;4970775;28;20375;-72
2023/05/21 10:33:28;;;;;;;23.90;10.32;;;;;;;22.12;62.78;101259.59;4972534;28;20042;-72
2023/05/21 10:35:56;;;;;;;14.35;11.00;;;;;;;21.66;62.00;101258.25;4987978;28;20088;-72
2023/05/21 10:38:24;;;;;;;24.35;12.43;;;;;;;21.69;62.91;101269.19;4991208;28;20046;-73
2023/05/21 10:40:49;;;;;;;19.75;12.48;;;;;;;21.41;63.31;101268.81;4978610;28;20037;-72
2023/05/21 10:43:21;;;;;;;18.27;11.32;;;;;;;21.24;63.16;101260.66;4985379;28;20054;-72
2023/05/21 10:46:06;;;;;;;16.98;11.18;;;;;;;21.25;63.88;101262.25;4986871;28;20121;-72
2023/05/21 10:48:59;;;;;;;18.42;10.52;;;;;;;21.75;63.96;101259.59;5000207;28;20080;-73
2023/05/21 10:51:37;;;;;;;16.17;10.70;;;;;;;22.23;64.02;101247.50;4979196;28;20058;-72
2023/05/21 10:54:17;;;;;;;19.00;12.48;;;;;;;22.28;63.35;101256.38;4961524;28;20058;-72
2023/05/21 10:56:58;;;;;;;14.50;10.25;;;;;;;22.27;61.34;101246.84;4981601;28;20035;-72
2023/05/21 10:59:44;;;;;;;17.85;12.07;;;;;;;22.32;61.92;101246.16;4970593;28;20548;-72
2023/05/21 11:02:12;;;;;;;21.80;11.55;;;;;;;22.31;61.69;101247.19;4965910;28;20122;-73
2023/05/21 11:04:41;;;;;;;16.75;10.88;;;;;;;22.14;62.16;101239.84;4981297;28;20133;-72
2023/05/21 11:07:07;;;;;;;25.92;11.48;;;;;;;21.94;62.35;101239.28;4985466;28;20039;-72
2023/05/21 11:09:32;;;;;;;21.30;11.63;;;;;;;22.19;61.67;101231.28;4973068;28;20079;-72
2023/05/21 11:11:59;;;;;;;19.20;11.52;;;;;;;22.33;62.75;101239.84;4967737;28;20471;-72
2023/05/21 11:14:34;;;;;;;15.63;10.90;;;;;;;22.50;62.90;101232.09;4980847;28;20539;-72
2023/05/21 11:17:08;;;;;;;22.98;11.52;;;;;;;22.49;60.51;101223.38;4983146;28;20508;-73